Time;durP1;ratioP1;P1;durP2;ratioP2;P2;SDS_P1;SDS_P2;PMS_P1;PMS_P2;Temp;Humidity;BMP_temperature;BMP_pressure;BME280_temperature;BME280_humidity;BME280_pressure;Samples;Min_cycle;Max_cycle;Signal;HPM_P1;HPM_P2
2022/05/05 00:01:03;;;;;;;11.10;7.20;;;;;;;;;;4998138;28;20470;-82
2022/05/05 00:03:29;;;;;;;12.10;8.30;;;;;;;;;;4999798;28;20431;-82
2022/05/05 00:05:55;;;;;;;11.95;8.27;;;;;;;;;;4999863;28;20488;-82
2022/05/05 00:08:22;;;;;;;11.45;8.60;;;;;;;;;;4999798;28;20463;-82
2022/05/05 00:16:17;;;;;;;12.25;8.32;;;;;;;;;;5000834;28;20583;-82
2022/05/05 00:18:43;;;;;;;13.40;8.10;;;;;;;;;;4999787;28;20790;-80
2022/05/05 00:21:09;;;;;;;15.63;9.40;;;;;;;;;;4997899;28;20856;-83
2022/05/05 00:23:36;;;;;;;14.10;8.93;;;;;;;;;;4996462;28;20522;-80
2022/05/05 00:26:02;;;;;;;13.70;9.23;;;;;;;;;;4998749;28;20434;-82
2022/05/05 00:28:29;;;;;;;13.63;8.27;;;;;;;;;;4995157;28;20468;-80
2022/05/05 00:30:56;;;;;;;16.48;9.27;;;;;;;;;;4993046;28;20436;-82
2022/05/05 00:33:23;;;;;;;13.75;8.20;;;;;;;;;;4994521;28;20441;-83
2022/05/05 00:35:49;;;;;;;13.75;8.80;;;;;;;;;;4997173;28;20479;-81
2022/05/05 00:38:16;;;;;;;12.70;8.60;;;;;;;;;;4997496;28;21077;-80
2022/05/05 00:40:42;;;;;;;13.52;8.60;;;;;;;;;;4998624;28;21001;-82
2022/05/05 00:43:08;;;;;;;12.05;8.43;;;;;;;;;;4995086;28;20438;-80
2022/05/05 00:45:35;;;;;;;10.07;8.45;;;;;;;;;;4993295;28;20430;-81
2022/05/05 00:48:07;;;;;;;12.57;8.30;;;;;;;;;;4999327;28;20420;-81
2022/05/05 00:50:34;;;;;;;11.00;8.27;;;;;;;;;;4992097;28;20428;-82
2022/05/05 00:53:00;;;;;;;12.00;8.35;;;;;;;;;;4999053;28;20437;-81
2022/05/05 00:55:26;;;;;;;13.15;8.88;;;;;;;;;;4995097;28;20433;-81
2022/05/05 00:57:52;;;;;;;12.65;8.30;;;;;;;;;;4997602;28;20446;-80
2022/05/05 01:00:19;;;;;;;12.70;8.20;;;;;;;;;;4991368;28;20504;-81
2022/05/05 01:02:46;;;;;;;11.82;8.60;;;;;;;;;;4998406;28;20484;-82
2022/05/05 01:05:13;;;;;;;14.75;8.57;;;;;;;;;;4994163;28;21281;-80
2022/05/05 01:07:39;;;;;;;11.68;8.35;;;;;;;;;;4996655;28;20446;-81
2022/05/05 01:10:06;;;;;;;16.27;9.07;;;;;;;;;;4996941;28;20438;-81
2022/05/05 01:12:33;;;;;;;12.45;8.65;;;;;;;;;;4998231;28;20462;-81
2022/05/05 01:15:00;;;;;;;11.80;8.27;;;;;;;;;;4996428;28;20433;-81
2022/05/05 01:17:27;;;;;;;13.15;8.70;;;;;;;;;;4997763;28;20437;-82
2022/05/05 01:19:53;;;;;;;10.43;7.93;;;;;;;;;;4995269;28;20489;-80
2022/05/05 01:22:21;;;;;;;13.53;8.00;;;;;;;;;;4994434;28;20579;-81
2022/05/05 01:30:16;;;;;;;10.93;8.30;;;;;;;;;;4990450;28;20809;-83
2022/05/05 01:32:42;;;;;;;13.85;8.63;;;;;;;;;;4998212;28;20432;-80
2022/05/05 01:35:08;;;;;;;11.00;8.60;;;;;;;;;;4995303;28;20434;-81
2022/05/05 01:37:36;;;;;;;11.27;8.45;;;;;;;;;;4996371;28;20436;-82
2022/05/05 01:40:02;;;;;;;11.98;8.52;;;;;;;;;;4997030;28;20420;-80
2022/05/05 01:42:29;;;;;;;10.95;8.10;;;;;;;;;;4998052;28;20490;-82
2022/05/05 01:44:55;;;;;;;14.93;9.10;;;;;;;;;;5105231;23;20927;-84
2022/05/05 01:47:21;;;;;;;14.40;8.55;;;;;;;;;;5000856;28;20434;-84
2022/05/05 01:49:48;;;;;;;12.10;8.48;;;;;;;;;;5001371;28;20453;-84
2022/05/05 01:52:14;;;;;;;10.70;7.90;;;;;;;;;;5003289;28;20490;-84
2022/05/05 01:54:42;;;;;;;12.40;8.30;;;;;;;;;;5001544;28;20498;-84
2022/05/05 01:57:08;;;;;;;10.80;8.67;;;;;;;;;;5000454;28;20441;-84
2022/05/05 01:59:35;;;;;;;13.20;8.70;;;;;;;;;;5000393;28;20542;-84
2022/05/05 02:02:02;;;;;;;11.88;8.85;;;;;;;;;;5006060;28;20436;-84
2022/05/05 02:04:28;;;;;;;10.63;8.70;;;;;;;;;;5004448;28;20469;-84
2022/05/05 02:06:54;;;;;;;14.30;9.25;;;;;;;;;;5004332;28;20434;-82
2022/05/05 02:09:20;;;;;;;12.90;8.90;;;;;;;;;;5002456;28;20422;-84
2022/05/05 02:11:48;;;;;;;13.27;9.48;;;;;;;;;;5001917;28;20480;-84
2022/05/05 02:14:14;;;;;;;11.40;8.63;;;;;;;;;;5002730;28;20857;-84
2022/05/05 02:16:41;;;;;;;12.70;9.43;;;;;;;;;;5008214;28;20551;-84
2022/05/05 02:19:07;;;;;;;11.73;8.95;;;;;;;;;;5006317;28;20437;-84
2022/05/05 02:21:33;;;;;;;11.80;8.57;;;;;;;;;;5008224;28;20456;-84
2022/05/05 02:23:59;;;;;;;10.05;8.68;;;;;;;;;;5010128;28;20420;-84
2022/05/05 02:26:26;;;;;;;11.60;8.83;;;;;;;;;;5004438;28;20854;-84
2022/05/05 02:28:54;;;;;;;11.45;8.80;;;;;;;;;;5001726;28;20442;-84
2022/05/05 02:31:21;;;;;;;12.15;9.10;;;;;;;;;;5002287;28;20485;-85
2022/05/05 02:33:47;;;;;;;11.88;8.77;;;;;;;;;;5000237;28;20458;-85
2022/05/05 02:38:57;;;;;;;11.35;9.07;;;;;;;;;;4999713;28;20415;-85
2022/05/05 02:41:23;;;;;;;10.70;8.63;;;;;;;;;;5003176;28;20782;-84
2022/05/05 02:43:50;;;;;;;10.48;8.85;;;;;;;;;;4999498;28;20857;-83
2022/05/05 02:46:17;;;;;;;9.63;8.60;;;;;;;;;;5002775;28;20445;-84
2022/05/05 02:48:44;;;;;;;9.95;8.00;;;;;;;;;;5001119;28;20438;-84
2022/05/05 02:51:10;;;;;;;9.03;7.90;;;;;;;;;;5002288;28;20434;-84
2022/05/05 02:56:20;;;;;;;10.50;9.18;;;;;;;;;;5003414;28;20430;-84
2022/05/05 02:58:47;;;;;;;10.65;9.18;;;;;;;;;;5001209;28;20443;-84
2022/05/05 03:01:13;;;;;;;13.05;8.65;;;;;;;;;;5011613;28;20436;-84
2022/05/05 03:03:40;;;;;;;11.35;9.35;;;;;;;;;;5006242;28;20434;-84
2022/05/05 03:06:07;;;;;;;11.40;8.82;;;;;;;;;;5005136;28;20430;-84
2022/05/05 03:08:33;;;;;;;11.70;9.48;;;;;;;;;;5003633;28;20496;-84
2022/05/05 03:10:59;;;;;;;11.55;9.90;;;;;;;;;;5001643;28;20821;-84
2022/05/05 03:13:25;;;;;;;11.80;9.02;;;;;;;;;;5005417;28;20424;-84
2022/05/05 03:15:52;;;;;;;11.57;8.90;;;;;;;;;;5003254;28;20426;-84
2022/05/05 03:18:18;;;;;;;13.20;9.50;;;;;;;;;;5004150;28;20437;-84
2022/05/05 03:20:45;;;;;;;10.23;9.10;;;;;;;;;;5005123;28;20428;-82
2022/05/05 03:23:12;;;;;;;12.80;9.23;;;;;;;;;;5002942;28;20442;-85
2022/05/05 03:25:39;;;;;;;10.07;9.00;;;;;;;;;;5005165;28;20425;-84
2022/05/05 03:28:05;;;;;;;10.73;9.50;;;;;;;;;;5005644;28;20418;-83
2022/05/05 03:30:32;;;;;;;10.18;9.18;;;;;;;;;;4999986;28;21014;-84
2022/05/05 03:32:58;;;;;;;9.60;8.70;;;;;;;;;;5005618;28;20426;-84
2022/05/05 03:35:24;;;;;;;10.77;9.70;;;;;;;;;;5000165;28;20442;-84
2022/05/05 03:37:52;;;;;;;10.60;9.60;;;;;;;;;;5005719;28;20455;-84
2022/05/05 03:40:18;;;;;;;13.15;9.48;;;;;;;;;;5001444;28;20428;-84
2022/05/05 03:42:44;;;;;;;12.98;10.02;;;;;;;;;;5003217;28;20934;-83
2022/05/05 03:45:11;;;;;;;12.27;9.17;;;;;;;;;;5003566;28;20421;-84
2022/05/05 03:47:37;;;;;;;12.10;9.70;;;;;;;;;;5003092;28;21475;-84
2022/05/05 03:50:03;;;;;;;10.73;8.98;;;;;;;;;;5002610;28;20494;-85
2022/05/05 03:52:30;;;;;;;11.77;9.25;;;;;;;;;;5004702;28;20838;-84
2022/05/05 03:54:57;;;;;;;10.65;8.98;;;;;;;;;;5001973;28;20461;-84
2022/05/05 03:57:23;;;;;;;12.15;9.43;;;;;;;;;;5003034;28;20436;-84
2022/05/05 03:59:50;;;;;;;10.30;9.20;;;;;;;;;;5000873;28;20477;-84
2022/05/05 04:02:16;;;;;;;9.93;8.93;;;;;;;;;;5005083;28;20426;-84
2022/05/05 04:04:42;;;;;;;10.37;8.90;;;;;;;;;;5003826;28;20862;-84
2022/05/05 04:07:09;;;;;;;16.63;9.65;;;;;;;;;;5001766;28;20505;-84
2022/05/05 04:09:35;;;;;;;13.43;10.23;;;;;;;;;;5001594;28;20470;-84
2022/05/05 04:12:02;;;;;;;11.25;10.05;;;;;;;;;;5003024;28;20438;-84
2022/05/05 04:14:29;;;;;;;12.90;10.70;;;;;;;;;;5000896;28;20824;-84
2022/05/05 04:16:55;;;;;;;11.32;10.10;;;;;;;;;;5003456;28;20789;-84
2022/05/05 04:19:21;;;;;;;13.30;10.60;;;;;;;;;;5001379;28;20489;-83
2022/05/05 04:21:47;;;;;;;14.07;9.90;;;;;;;;;;5000461;28;20924;-84
2022/05/05 04:24:14;;;;;;;11.45;10.35;;;;;;;;;;4996510;28;20796;-84
2022/05/05 04:26:41;;;;;;;15.93;9.75;;;;;;;;;;5002645;28;20806;-83
2022/05/05 04:29:09;;;;;;;12.75;9.82;;;;;;;;;;5001400;28;20414;-84
2022/05/05 04:31:36;;;;;;;13.10;9.80;;;;;;;;;;4994651;28;20437;-83
2022/05/05 04:34:04;;;;;;;13.02;10.13;;;;;;;;;;5002122;28;20422;-84
2022/05/05 04:36:34;;;;;;;12.23;9.48;;;;;;;;;;5001143;28;20436;-84
2022/05/05 04:39:01;;;;;;;15.10;10.57;;;;;;;;;;4998581;28;20423;-84
2022/05/05 04:41:27;;;;;;;10.77;9.60;;;;;;;;;;4983162;28;20512;-84
2022/05/05 04:43:53;;;;;;;12.60;10.15;;;;;;;;;;4979933;28;20432;-84
2022/05/05 04:46:21;;;;;;;10.37;9.30;;;;;;;;;;4984602;28;20458;-84
2022/05/05 04:48:48;;;;;;;13.52;9.70;;;;;;;;;;4980400;28;20434;-83
2022/05/05 04:51:14;;;;;;;10.75;9.63;;;;;;;;;;4982728;28;20471;-84
2022/05/05 04:53:40;;;;;;;11.80;10.23;;;;;;;;;;4983678;28;20438;-84
2022/05/05 04:56:10;;;;;;;12.27;10.20;;;;;;;;;;4981969;28;20440;-84
2022/05/05 04:58:36;;;;;;;10.70;9.60;;;;;;;;;;4981825;28;20436;-84
2022/05/05 05:01:03;;;;;;;12.55;11.00;;;;;;;;;;4999579;28;20459;-84
2022/05/05 05:03:35;;;;;;;12.50;10.10;;;;;;;;;;5002470;28;20440;-84
2022/05/05 05:06:02;;;;;;;13.20;10.93;;;;;;;;;;5002979;28;20495;-84
2022/05/05 05:08:28;;;;;;;11.45;10.27;;;;;;;;;;5001053;28;20458;-84
2022/05/05 05:10:54;;;;;;;12.18;10.38;;;;;;;;;;5001350;28;20493;-83
2022/05/05 05:13:21;;;;;;;12.50;11.00;;;;;;;;;;5003526;28;20438;-84
2022/05/05 05:15:47;;;;;;;13.40;11.27;;;;;;;;;;4997559;28;20489;-83
2022/05/05 05:18:13;;;;;;;11.60;10.50;;;;;;;;;;4996589;28;20536;-84
2022/05/05 05:20:41;;;;;;;12.13;9.73;;;;;;;;;;5001766;28;20460;-84
2022/05/05 05:23:07;;;;;;;12.02;10.93;;;;;;;;;;5001895;28;20434;-83
2022/05/05 05:25:33;;;;;;;12.93;10.60;;;;;;;;;;4998611;28;20426;-84
2022/05/05 05:27:59;;;;;;;16.50;11.50;;;;;;;;;;5002745;28;20450;-82
2022/05/05 05:30:26;;;;;;;14.13;12.18;;;;;;;;;;4999819;28;20433;-84
2022/05/05 05:32:52;;;;;;;18.33;12.73;;;;;;;;;;5001043;28;20504;-83
2022/05/05 05:35:18;;;;;;;14.00;12.23;;;;;;;;;;5007164;28;20435;-84
2022/05/05 05:37:46;;;;;;;14.93;12.20;;;;;;;;;;5005056;28;20517;-84
2022/05/05 05:40:12;;;;;;;15.98;12.30;;;;;;;;;;5004950;28;20433;-83
2022/05/05 05:42:38;;;;;;;15.63;13.95;;;;;;;;;;5007500;28;20432;-83
2022/05/05 05:45:08;;;;;;;18.63;15.00;;;;;;;;;;5005299;28;21156;-83
2022/05/05 05:47:34;;;;;;;18.90;13.13;;;;;;;;;;5008391;28;20464;-84
2022/05/05 05:50:00;;;;;;;15.88;13.48;;;;;;;;;;5003780;28;20428;-84
2022/05/05 05:52:26;;;;;;;16.17;13.00;;;;;;;;;;5006920;28;20437;-83
2022/05/05 05:54:54;;;;;;;17.67;13.18;;;;;;;;;;5004611;28;20425;-83
2022/05/05 05:57:20;;;;;;;16.38;12.98;;;;;;;;;;5002173;28;20440;-83
2022/05/05 05:59:46;;;;;;;13.63;12.05;;;;;;;;;;4998153;28;20418;-83
2022/05/05 06:04:57;;;;;;;15.25;11.43;;;;;;;;;;5004318;28;20423;-83
2022/05/05 06:07:23;;;;;;;19.83;13.40;;;;;;;;;;5006779;28;20543;-83
2022/05/05 06:09:49;;;;;;;14.88;11.52;;;;;;;;;;5003290;28;20830;-83
2022/05/05 06:12:17;;;;;;;14.65;11.32;;;;;;;;;;5003554;28;20528;-82
2022/05/05 06:14:43;;;;;;;16.60;11.18;;;;;;;;;;5003665;28;20426;-84
2022/05/05 06:17:09;;;;;;;14.98;11.15;;;;;;;;;;5006671;28;20445;-83
2022/05/05 06:19:36;;;;;;;14.35;12.10;;;;;;;;;;5003060;28;20904;-83
2022/05/05 06:22:03;;;;;;;17.70;11.87;;;;;;;;;;5002689;28;20491;-83
2022/05/05 06:24:29;;;;;;;13.10;11.02;;;;;;;;;;5004235;28;20478;-84
2022/05/05 06:26:55;;;;;;;12.60;11.00;;;;;;;;;;5005262;28;20742;-84
2022/05/05 06:29:24;;;;;;;13.65;12.23;;;;;;;;;;5003536;28;20418;-83
2022/05/05 06:31:51;;;;;;;14.68;11.60;;;;;;;;;;5003974;28;20470;-83
2022/05/05 06:34:17;;;;;;;12.90;11.60;;;;;;;;;;5004143;28;20477;-83
2022/05/05 06:36:43;;;;;;;14.48;11.63;;;;;;;;;;5005293;28;20413;-83
2022/05/05 06:39:09;;;;;;;15.50;12.07;;;;;;;;;;5001065;28;20410;-83
2022/05/05 06:41:36;;;;;;;12.93;10.95;;;;;;;;;;5004290;28;20415;-83
2022/05/05 06:44:02;;;;;;;15.80;12.40;;;;;;;;;;5003357;28;20506;-83
2022/05/05 06:46:30;;;;;;;12.80;9.93;;;;;;;;;;5003709;28;20442;-83
2022/05/05 06:48:56;;;;;;;15.07;10.80;;;;;;;;;;5001968;28;20426;-83
2022/05/05 06:51:22;;;;;;;10.73;9.50;;;;;;;;;;5005405;28;20927;-84
2022/05/05 06:53:49;;;;;;;12.40;10.50;;;;;;;;;;5005936;28;20474;-83
2022/05/05 06:56:15;;;;;;;16.25;10.38;;;;;;;;;;5002997;28;20512;-83
2022/05/05 06:58:41;;;;;;;13.80;8.93;;;;;;;;;;5002365;28;20948;-83
2022/05/05 07:05:23;;;;;;;7.72;6.20;;;;;;;;;;5004181;28;20483;-83
2022/05/05 07:06:38;;;;;;;5.83;4.07;;;;;;;;;;5001434;28;20843;-81
2022/05/05 07:11:48;;;;;;;10.25;5.32;;;;;;;;;;5004450;28;20433;-83
2022/05/05 07:14:15;;;;;;;9.73;6.20;;;;;;;;;;5004845;28;20421;-83
2022/05/05 07:16:41;;;;;;;11.05;5.63;;;;;;;;;;5005718;28;20962;-83
2022/05/05 07:19:10;;;;;;;9.20;6.40;;;;;;;;;;5005489;28;20494;-83
2022/05/05 07:21:37;;;;;;;9.43;5.90;;;;;;;;;;4999415;28;20448;-83
2022/05/05 07:24:04;;;;;;;7.72;6.10;;;;;;;;;;5006045;28;20456;-83
2022/05/05 07:26:30;;;;;;;7.38;5.45;;;;;;;;;;5005388;28;20422;-83
2022/05/05 07:28:56;;;;;;;13.27;6.65;;;;;;;;;;5004722;28;20417;-83
2022/05/05 07:31:23;;;;;;;20.42;7.40;;;;;;;;;;5007972;28;20435;-84
2022/05/05 07:33:49;;;;;;;8.68;5.80;;;;;;;;;;5003933;28;20442;-83
2022/05/05 07:36:16;;;;;;;8.27;5.68;;;;;;;;;;5006521;28;20445;-84
2022/05/05 07:38:43;;;;;;;8.27;5.72;;;;;;;;;;5003719;28;20490;-83
2022/05/05 07:41:09;;;;;;;5.40;4.90;;;;;;;;;;5006617;28;21006;-83
2022/05/05 07:43:35;;;;;;;10.40;5.20;;;;;;;;;;5004966;28;20442;-84
2022/05/05 07:46:01;;;;;;;10.75;5.05;;;;;;;;;;5006671;28;20418;-84
2022/05/05 07:48:28;;;;;;;7.35;4.50;;;;;;;;;;5007235;28;20436;-83
2022/05/05 07:50:54;;;;;;;7.78;5.20;;;;;;;;;;5006662;28;20515;-83
2022/05/05 07:53:21;;;;;;;8.00;4.40;;;;;;;;;;5006062;28;20428;-84
2022/05/05 07:55:48;;;;;;;9.93;5.00;;;;;;;;;;5001027;28;20582;-83
2022/05/05 07:58:14;;;;;;;7.07;4.10;;;;;;;;;;5003096;28;20433;-83
2022/05/05 08:00:40;;;;;;;9.55;5.20;;;;;;;;;;5005944;28;20428;-84
2022/05/05 08:03:06;;;;;;;10.93;5.40;;;;;;;;;;5006815;28;21007;-84
2022/05/05 08:05:33;;;;;;;7.43;5.10;;;;;;;;;;5006026;28;20834;-84
2022/05/05 08:07:59;;;;;;;7.30;4.30;;;;;;;;;;5004435;28;20858;-82
2022/05/05 08:10:29;;;;;;;9.30;4.80;;;;;;;;;;5006020;28;20500;-84
2022/05/05 08:12:56;;;;;;;9.63;5.22;;;;;;;;;;5007101;28;20440;-84
2022/05/05 08:15:23;;;;;;;9.13;4.53;;;;;;;;;;5002538;28;20421;-84
2022/05/05 08:17:49;;;;;;;6.25;4.82;;;;;;;;;;5006413;28;20434;-83
2022/05/05 08:20:16;;;;;;;5.50;4.50;;;;;;;;;;5002464;28;20485;-82
2022/05/05 08:22:43;;;;;;;7.78;4.50;;;;;;;;;;5001327;28;20420;-83
2022/05/05 08:30:49;;;;;;;7.88;3.85;;;;;;;;;;4996889;28;20506;-84
2022/05/05 08:33:16;;;;;;;10.75;4.30;;;;;;;;;;5002135;28;20434;-84
2022/05/05 08:35:42;;;;;;;6.70;3.88;;;;;;;;;;5002855;28;20480;-83
2022/05/05 08:38:09;;;;;;;7.93;4.40;;;;;;;;;;5002534;28;20438;-84
2022/05/05 08:40:36;;;;;;;7.70;4.70;;;;;;;;;;5003120;28;20487;-84
2022/05/05 08:43:02;;;;;;;9.25;4.45;;;;;;;;;;5003378;28;20545;-85
2022/05/05 08:45:31;;;;;;;8.43;4.60;;;;;;;;;;5000156;28;20422;-83
2022/05/05 08:47:59;;;;;;;6.75;4.70;;;;;;;;;;5001760;28;20433;-83
2022/05/05 08:50:25;;;;;;;6.20;4.70;;;;;;;;;;5001151;28;20421;-84
2022/05/05 08:52:52;;;;;;;7.63;5.03;;;;;;;;;;5001999;28;20433;-84
2022/05/05 08:55:19;;;;;;;8.50;5.00;;;;;;;;;;4999870;28;20951;-84
2022/05/05 08:57:45;;;;;;;6.30;4.80;;;;;;;;;;5000751;28;20696;-84
2022/05/05 09:00:13;;;;;;;6.50;4.93;;;;;;;;;;4996846;28;20519;-84
2022/05/05 09:02:41;;;;;;;9.37;4.90;;;;;;;;;;4998842;28;20426;-84
2022/05/05 09:05:07;;;;;;;6.93;4.20;;;;;;;;;;5000665;28;20477;-82
2022/05/05 09:07:45;;;;;;;7.68;4.00;;;;;;;;;;5001899;28;20467;-84
2022/05/05 09:10:12;;;;;;;6.28;3.97;;;;;;;;;;4999357;28;20422;-83
2022/05/05 09:12:38;;;;;;;10.60;4.25;;;;;;;;;;4998064;28;21125;-83
2022/05/05 09:15:08;;;;;;;9.50;4.65;;;;;;;;;;4998284;28;20963;-84
2022/05/05 09:17:35;;;;;;;5.70;3.80;;;;;;;;;;5001166;28;20434;-84
2022/05/05 09:20:04;;;;;;;11.32;4.65;;;;;;;;;;4999422;28;20426;-83
2022/05/05 09:22:30;;;;;;;6.22;4.15;;;;;;;;;;4998938;28;21120;-84
2022/05/05 09:24:57;;;;;;;7.78;3.83;;;;;;;;;;4999294;28;20503;-84
2022/05/05 09:27:25;;;;;;;7.15;3.60;;;;;;;;;;5000646;28;20413;-84
2022/05/05 09:29:58;;;;;;;8.43;4.40;;;;;;;;;;4997464;28;20439;-83
2022/05/05 09:32:27;;;;;;;6.35;4.20;;;;;;;;;;4999873;28;20439;-83
2022/05/05 09:34:56;;;;;;;5.85;3.90;;;;;;;;;;4999453;28;20428;-84
2022/05/05 09:37:23;;;;;;;10.57;4.35;;;;;;;;;;4999408;28;20448;-83
2022/05/05 09:39:53;;;;;;;7.40;3.90;;;;;;;;;;4994768;28;20443;-84
2022/05/05 09:42:34;;;;;;;6.40;4.50;;;;;;;;;;5000528;28;20420;-84
2022/05/05 09:45:10;;;;;;;5.00;4.22;;;;;;;;;;4997765;28;20922;-84
2022/05/05 09:47:37;;;;;;;6.35;4.13;;;;;;;;;;4999810;28;20497;-84
2022/05/05 09:50:04;;;;;;;9.52;4.03;;;;;;;;;;4999497;28;20425;-83
2022/05/05 09:58:03;;;;;;;12.77;5.13;;;;;;;;;;5000278;28;20785;-82
2022/05/05 10:00:44;;;;;;;10.70;4.47;;;;;;;;;;4997934;28;20422;-84
2022/05/05 10:05:57;;;;;;;8.90;4.30;;;;;;;;;;4999289;28;20828;-82
2022/05/05 10:08:37;;;;;;;9.95;4.15;;;;;;;;;;4997311;28;20449;-82
2022/05/05 10:11:05;;;;;;;10.83;4.77;;;;;;;;;;4998348;28;21089;-83
2022/05/05 10:13:32;;;;;;;7.65;4.50;;;;;;;;;;5000595;28;20527;-83
2022/05/05 10:15:59;;;;;;;8.23;3.78;;;;;;;;;;5001595;28;20429;-83
2022/05/05 10:18:26;;;;;;;10.82;4.50;;;;;;;;;;5002130;28;20490;-84
2022/05/05 10:20:52;;;;;;;9.87;4.00;;;;;;;;;;5003580;28;20478;-82
2022/05/05 10:23:21;;;;;;;8.93;5.00;;;;;;;;;;5005053;28;21453;-83
2022/05/05 10:25:53;;;;;;;8.37;3.90;;;;;;;;;;5006656;28;20426;-82
2022/05/05 10:28:38;;;;;;;8.88;4.75;;;;;;;;;;5002265;28;20527;-82
2022/05/05 10:31:05;;;;;;;8.88;4.60;;;;;;;;;;5004672;28;20416;-83
2022/05/05 10:33:46;;;;;;;8.52;3.95;;;;;;;;;;5006091;28;20482;-83
2022/05/05 10:36:22;;;;;;;7.60;4.30;;;;;;;;;;5006577;28;20470;-84
2022/05/05 10:38:49;;;;;;;8.52;4.20;;;;;;;;;;5005663;28;20410;-83
2022/05/05 10:41:34;;;;;;;8.23;3.83;;;;;;;;;;5006549;28;20441;-83
2022/05/05 10:44:15;;;;;;;8.57;4.70;;;;;;;;;;5006200;28;20438;-82
2022/05/05 10:46:56;;;;;;;8.32;4.75;;;;;;;;;;5003947;28;20488;-83
2022/05/05 10:49:41;;;;;;;8.00;4.40;;;;;;;;;;5004236;28;20422;-83
2022/05/05 10:52:26;;;;;;;4.70;3.70;;;;;;;;;;5006581;28;20769;-84
2022/05/05 10:54:54;;;;;;;10.00;4.25;;;;;;;;;;5005050;28;20433;-84
2022/05/05 10:57:39;;;;;;;7.93;3.97;;;;;;;;;;5005275;28;20851;-84
2022/05/05 11:00:06;;;;;;;5.68;3.90;;;;;;;;;;5004312;28;20449;-83
2022/05/05 11:02:33;;;;;;;7.75;4.13;;;;;;;;;;5006659;28;20438;-83
2022/05/05 11:05:22;;;;;;;9.13;4.03;;;;;;;;;;5007162;28;20430;-83
2022/05/05 11:07:49;;;;;;;8.52;4.00;;;;;;;;;;5009157;28;20465;-84
2022/05/05 11:10:30;;;;;;;13.32;4.50;;;;;;;;;;5005802;28;20458;-83
2022/05/05 11:12:56;;;;;;;7.40;3.47;;;;;;;;;;5004980;28;20438;-84
2022/05/05 11:23:57;;;;;;;7.30;4.10;;;;;;;;;;5003727;28;20781;-84
2022/05/05 11:26:23;;;;;;;4.65;4.00;;;;;;;;;;5006558;28;20436;-84
2022/05/05 11:28:50;;;;;;;8.55;4.15;;;;;;;;;;5004219;28;20798;-83
2022/05/05 11:31:19;;;;;;;5.63;4.33;;;;;;;;;;5001107;28;20446;-84
2022/05/05 11:33:48;;;;;;;7.38;3.90;;;;;;;;;;5004784;28;20488;-83
2022/05/05 11:36:15;;;;;;;6.60;3.70;;;;;;;;;;5006806;28;20430;-84
2022/05/05 11:38:42;;;;;;;5.63;3.30;;;;;;;;;;5005815;28;20808;-83
2022/05/05 11:41:08;;;;;;;4.30;3.03;;;;;;;;;;5004769;28;20419;-85
2022/05/05 11:46:20;;;;;;;5.53;3.00;;;;;;;;;;5004748;28;20412;-84
2022/05/05 11:48:54;;;;;;;7.25;3.30;;;;;;;;;;5006568;28;20432;-84
2022/05/05 11:51:21;;;;;;;4.35;3.00;;;;;;;;;;5007592;28;20829;-82
2022/05/05 11:53:47;;;;;;;4.18;2.60;;;;;;;;;;5003731;28;20438;-83
2022/05/05 11:56:14;;;;;;;3.50;2.75;;;;;;;;;;5006888;28;20444;-84
2022/05/05 12:01:45;;;;;;;5.22;3.00;;;;;;;;;;5005972;28;20409;-84
2022/05/05 12:04:14;;;;;;;5.45;3.30;;;;;;;;;;5006923;28;20424;-84
2022/05/05 12:06:41;;;;;;;4.30;2.90;;;;;;;;;;5006065;28;20464;-84
2022/05/05 12:09:08;;;;;;;6.43;3.10;;;;;;;;;;5004132;28;20430;-84
2022/05/05 12:11:35;;;;;;;4.68;2.90;;;;;;;;;;5007982;28;20448;-84
2022/05/05 12:14:03;;;;;;;2.92;2.45;;;;;;;;;;5007670;28;20490;-85
2022/05/05 12:16:30;;;;;;;4.28;2.67;;;;;;;;;;5005983;28;20787;-84
2022/05/05 12:18:57;;;;;;;6.40;2.42;;;;;;;;;;5003818;28;20536;-84
2022/05/05 12:21:25;;;;;;;5.32;2.90;;;;;;;;;;5002510;28;20420;-85
2022/05/05 12:23:55;;;;;;;6.65;2.50;;;;;;;;;;5001154;28;20426;-84
2022/05/05 12:26:22;;;;;;;6.20;2.70;;;;;;;;;;5003949;28;20442;-84
2022/05/05 12:28:51;;;;;;;4.00;2.37;;;;;;;;;;5000403;28;20416;-84
2022/05/05 12:31:21;;;;;;;4.13;2.50;;;;;;;;;;5004348;28;20481;-84
2022/05/05 12:33:47;;;;;;;4.28;2.17;;;;;;;;;;5003213;28;20460;-84
2022/05/05 12:36:14;;;;;;;7.72;2.45;;;;;;;;;;5004410;28;20516;-84
2022/05/05 12:38:41;;;;;;;4.00;2.05;;;;;;;;;;5003374;28;21088;-84
2022/05/05 12:41:08;;;;;;;5.82;2.40;;;;;;;;;;5005201;28;20434;-83
2022/05/05 12:43:35;;;;;;;4.25;2.10;;;;;;;;;;5004783;28;20429;-83
2022/05/05 12:46:02;;;;;;;4.75;2.40;;;;;;;;;;5004548;28;20436;-84
2022/05/05 12:48:28;;;;;;;3.55;1.85;;;;;;;;;;5006114;28;20437;-83
2022/05/05 12:50:54;;;;;;;3.75;1.80;;;;;;;;;;5004576;28;20420;-84
2022/05/05 13:01:38;;;;;;;3.28;1.50;;;;;;;;;;5004410;28;20599;-84
2022/05/05 13:04:06;;;;;;;2.03;1.75;;;;;;;;;;5003663;28;20426;-85
2022/05/05 13:06:32;;;;;;;3.40;1.83;;;;;;;;;;5004405;28;20507;-84
2022/05/05 13:08:59;;;;;;;3.42;1.60;;;;;;;;;;5003641;28;20445;-84
2022/05/05 13:11:26;;;;;;;4.45;1.60;;;;;;;;;;5005875;28;20432;-84
2022/05/05 13:13:53;;;;;;;3.90;1.88;;;;;;;;;;5005790;28;20786;-83
2022/05/05 13:16:19;;;;;;;2.10;1.70;;;;;;;;;;5004453;28;20436;-84
2022/05/05 13:18:46;;;;;;;2.47;1.70;;;;;;;;;;5003654;28;20440;-84
2022/05/05 13:21:12;;;;;;;3.95;1.90;;;;;;;;;;5002314;28;20440;-84
2022/05/05 13:23:38;;;;;;;3.40;2.10;;;;;;;;;;5002522;28;21024;-84
2022/05/05 13:26:05;;;;;;;2.55;1.83;;;;;;;;;;5004398;28;20446;-84
2022/05/05 13:28:33;;;;;;;3.42;2.13;;;;;;;;;;5005746;28;20471;-84
2022/05/05 13:30:59;;;;;;;5.57;2.40;;;;;;;;;;5002309;28;20456;-84
2022/05/05 13:33:25;;;;;;;3.97;1.80;;;;;;;;;;5005703;28;20516;-83
2022/05/05 13:35:52;;;;;;;2.20;1.80;;;;;;;;;;5004114;28;20421;-84
2022/05/05 13:38:18;;;;;;;3.40;2.25;;;;;;;;;;5001427;28;20445;-84
2022/05/05 13:40:45;;;;;;;3.30;2.27;;;;;;;;;;5003412;28;20424;-84
2022/05/05 13:43:12;;;;;;;3.67;2.40;;;;;;;;;;5005696;28;20410;-85
2022/05/05 13:45:40;;;;;;;2.30;2.10;;;;;;;;;;5002299;28;20434;-84
2022/05/05 13:48:06;;;;;;;5.22;2.50;;;;;;;;;;5003884;28;20490;-84
2022/05/05 13:50:32;;;;;;;3.97;2.30;;;;;;;;;;5002978;28;20831;-84
2022/05/05 13:52:58;;;;;;;3.58;2.17;;;;;;;;;;5002899;28;20444;-84
2022/05/05 13:55:27;;;;;;;3.88;2.10;;;;;;;;;;5006016;28;20483;-84
2022/05/05 13:57:53;;;;;;;3.92;1.95;;;;;;;;;;5009576;28;20455;-83
2022/05/05 14:00:20;;;;;;;4.53;1.75;;;;;;;;;;5002466;28;21003;-84
2022/05/05 14:02:47;;;;;;;2.40;1.42;;;;;;;;;;5003277;28;20458;-84
2022/05/05 14:05:14;;;;;;;3.60;1.80;;;;;;;;;;5004351;28;20430;-84
2022/05/05 14:13:07;;;;;;;1.85;1.48;;;;;;;;;;5005556;28;20412;-83
2022/05/05 14:15:34;;;;;;;2.80;1.67;;;;;;;;;;5004274;28;20424;-84
2022/05/05 14:18:01;;;;;;;1.60;1.50;;;;;;;;;;5003357;28;20981;-83
2022/05/05 14:20:29;;;;;;;3.10;1.60;;;;;;;;;;5000413;28;20426;-84
2022/05/05 14:22:55;;;;;;;3.30;2.00;;;;;;;;;;5001737;28;20770;-84
2022/05/05 14:25:21;;;;;;;2.95;1.55;;;;;;;;;;5003801;28;20420;-84
2022/05/05 14:27:47;;;;;;;3.60;1.73;;;;;;;;;;5002354;28;20434;-83
2022/05/05 14:30:14;;;;;;;4.80;1.70;;;;;;;;;;5001607;28;20420;-83
2022/05/05 14:32:40;;;;;;;2.90;1.80;;;;;;;;;;5005014;28;20482;-85
2022/05/05 14:35:08;;;;;;;2.50;1.70;;;;;;;;;;5002622;28;21264;-85
2022/05/05 14:37:34;;;;;;;4.15;1.73;;;;;;;;;;5002453;28;20422;-84
2022/05/05 14:40:01;;;;;;;3.10;2.22;;;;;;;;;;5002216;28;20453;-84
2022/05/05 14:42:27;;;;;;;4.10;2.30;;;;;;;;;;5001157;28;20432;-84
2022/05/05 14:44:53;;;;;;;2.38;1.75;;;;;;;;;;5002583;28;20432;-85
2022/05/05 14:47:20;;;;;;;4.40;2.38;;;;;;;;;;5004519;28;20436;-84
2022/05/05 14:49:48;;;;;;;4.30;2.70;;;;;;;;;;5003267;28;20475;-85
2022/05/05 14:52:16;;;;;;;6.50;2.80;;;;;;;;;;5000998;28;20508;-83
2022/05/05 14:54:42;;;;;;;4.85;2.80;;;;;;;;;;5003238;28;20418;-86
2022/05/05 14:57:10;;;;;;;5.93;2.83;;;;;;;;;;5004363;28;20511;-85
2022/05/05 14:59:36;;;;;;;2.65;2.33;;;;;;;;;;4997329;28;20998;-85
2022/05/05 15:02:02;;;;;;;2.20;2.00;;;;;;;;;;5002505;28;20476;-85
2022/05/05 15:04:28;;;;;;;3.00;2.20;;;;;;;;;;5004951;28;20496;-84
2022/05/05 15:06:55;;;;;;;2.57;1.87;;;;;;;;;;5002327;28;20795;-84
2022/05/05 15:09:22;;;;;;;2.47;1.65;;;;;;;;;;5002509;28;20555;-86
2022/05/05 15:11:48;;;;;;;2.83;1.88;;;;;;;;;;5001862;28;20426;-85
2022/05/05 15:14:15;;;;;;;2.60;1.60;;;;;;;;;;5001701;28;20424;-85
2022/05/05 15:16:41;;;;;;;2.90;1.70;;;;;;;;;;5001782;28;20436;-84
2022/05/05 15:19:07;;;;;;;2.22;1.65;;;;;;;;;;5000690;28;20434;-85
2022/05/05 15:21:34;;;;;;;2.93;1.80;;;;;;;;;;5004041;28;20442;-85
2022/05/05 15:24:00;;;;;;;1.77;1.60;;;;;;;;;;5000524;28;20423;-84
2022/05/05 15:26:28;;;;;;;2.40;1.80;;;;;;;;;;5000375;28;20458;-85
2022/05/05 15:28:55;;;;;;;1.70;1.58;;;;;;;;;;4999953;28;21006;-85
2022/05/05 15:31:22;;;;;;;2.60;1.83;;;;;;;;;;4999983;28;20536;-85
2022/05/05 15:33:48;;;;;;;2.25;1.80;;;;;;;;;;5001182;28;20441;-84
2022/05/05 15:36:14;;;;;;;4.53;1.85;;;;;;;;;;5002166;28;20437;-84
2022/05/05 15:38:40;;;;;;;2.78;2.22;;;;;;;;;;5003538;28;20434;-84
2022/05/05 15:41:07;;;;;;;2.17;1.92;;;;;;;;;;5004085;28;20447;-84